North Weyburn, Saskatchewan

5:05 AM CST on June 02, 2015 (GMT -0600)
Halbrite | | Change Station
CLOSE
Current Station
Personal Weather Station
Location: Halbrite, SK
Elevation: 1912 ft
Nearby Weather Stations

Elev 1912 ft 49.48 °N, 103.55 °W | Updated 8 seconds ago

Mostly Cloudy
Mostly Cloudy
54.3 °F
Feels Like 54.3 °F
N
13.8
Wind Variable Wind from ENE
Gusts 13.8 mph

Today
High -- | Low -- °F
--% Chance of Precip.
Yesterday
High -- | Low -- °F
Precip. -- in
4:51 AM 8:55 PM
Full, 100% visible
Pressure 29.85 in
Visibility 15.0 miles
Clouds Mostly Cloudy 13000 ft
Dew Point 48 °F
Humidity 79%
Rainfall 0.00 in
Snow Depth Not available.
UV 0 out of 12
Pollen Not available.
Air Quality Not available.
Flu Activity Not available.
METAR CYEN 021000Z 02008KT 15SM BKN130 11/09 A2985 RMK AS7 SLP108

More Conditions Fewer Conditions

Pressure 29.85 in
Visibility 15.0 miles
Clouds Mostly Cloudy 13000 ft
Dew Point 48 °F
Humidity 79%
Rainfall 0.00 in
Snow Depth Not available.
UV 0 out of 12
Pollen Not available.
Air Quality Not available.
Flu Activity Not available.
METAR CYEN 021000Z 02008KT 15SM BKN130 11/09 A2985 RMK AS7 SLP108

More Conditions Fewer Conditions

10-Day Weather Forecast

Almanac

Astronomy

Jun. 02, 2015 Rise Set
Actual Time
Civil Twilight
Nautical Twilight
Astronomical Twilight
Moon
Length of Visible Light
Length of Day
Tomorrow will be .
, % of the Moon is Illuminated

Today's Extremes

Country Highs Country Lows

Community

WunderPhotos

Upload Photos

1,825,906 photos uploaded!

WunderBlogs® & News

Nearby

Air Quality

  Air Quality AQ Index Pollutant
Not available.

Snow Depth

Station Depth Elevation

Earthquake Activity

City Distance Mag. Time & Date
Minimum magnitude displayed is 2.5.

Coastal Water Temperatures

Place Temperature

Stations

Nearby Weather Stations

Station Location Temp. Windchill Dew Point Humidity Wind Precip. Elev Updated Type